Time;durP1;ratioP1;P1;durP2;ratioP2;P2;SDS_P1;SDS_P2;PMS_P1;PMS_P2;Temp;Humidity;BMP_temperature;BMP_pressure;BME280_temperature;BME280_humidity;BME280_pressure;Samples;Min_cycle;Max_cycle;Signal;HPM_P1;HPM_P2
2021/06/28 00:01:12;;;;;;;;;8.00;8.00;;;;;19.71;83.81;101051.31;5004302;28;45591;-76
2021/06/28 00:03:38;;;;;;;;;8.75;8.75;;;;;19.69;83.55;101053.34;5002601;28;45577;-68
2021/06/28 00:06:05;;;;;;;;;9.00;8.50;;;;;19.69;83.34;101050.66;5005529;28;45884;-69
2021/06/28 00:08:31;;;;;;;;;9.50;8.00;;;;;19.67;83.49;101053.53;5004623;28;46022;-76
2021/06/28 00:10:56;;;;;;;;;8.25;8.25;;;;;19.67;84.04;101052.69;5007350;28;46110;-75
2021/06/28 00:13:21;;;;;;;;;7.00;7.00;;;;;19.65;83.65;101044.84;5003745;28;45425;-76
2021/06/28 00:15:47;;;;;;;;;8.00;7.25;;;;;19.66;84.06;101046.50;5004723;28;45585;-68
2021/06/28 00:18:14;;;;;;;;;9.00;9.00;;;;;19.66;84.20;101051.06;5004663;28;45774;-75
2021/06/28 00:20:41;;;;;;;;;7.50;7.50;;;;;19.66;83.93;101051.06;5004486;28;45751;-68
2021/06/28 00:23:07;;;;;;;;;9.75;8.50;;;;;19.64;84.17;101043.19;5006896;28;45514;-74
2021/06/28 00:25:32;;;;;;;;;9.25;9.25;;;;;19.64;84.85;101042.38;5004456;28;45435;-68
2021/06/28 00:27:58;;;;;;;;;6.75;6.75;;;;;19.64;83.92;101039.69;5003451;28;45801;-68
2021/06/28 00:30:24;;;;;;;;;9.00;9.00;;;;;19.63;83.99;101032.66;5004649;28;45710;-75
2021/06/28 00:32:50;;;;;;;;;11.00;9.00;;;;;19.63;84.05;101032.66;5005951;28;46183;-76
2021/06/28 00:35:18;;;;;;;;;9.00;9.00;;;;;19.63;84.46;101027.31;5006058;28;46036;-76
2021/06/28 00:37:45;;;;;;;;;9.00;9.00;;;;;19.62;84.41;101023.78;5005429;28;46383;-75
2021/06/28 00:40:13;;;;;;;;;8.00;8.00;;;;;19.61;84.47;101013.25;5004082;28;45940;-68
2021/06/28 00:42:39;;;;;;;;;12.75;10.00;;;;;19.61;84.75;101007.91;5014048;28;45818;-70
2021/06/28 00:45:29;;;;;;;;;7.00;7.00;;;;;19.55;84.47;100996.13;5003442;28;45910;-68
2021/06/28 00:48:00;;;;;;;;;9.25;8.25;;;;;19.58;84.38;101001.09;5004004;28;46455;-68
2021/06/28 00:50:28;;;;;;;;;7.75;7.75;;;;;19.56;84.28;100995.13;5004816;28;45609;-75
2021/06/28 00:52:59;;;;;;;;;9.00;9.00;;;;;19.55;84.51;100988.09;5006187;28;46136;-74
2021/06/28 00:55:25;;;;;;;;;9.50;8.75;;;;;19.52;85.00;100986.66;4999763;28;45590;-69
2021/06/28 00:57:51;;;;;;;;;9.00;9.00;;;;;19.51;84.07;100985.00;5004290;28;45782;-74
2021/06/28 01:00:18;;;;;;;;;10.00;8.00;;;;;19.51;84.86;100989.53;5004098;28;45894;-76
2021/06/28 01:02:43;;;;;;;;;7.25;7.25;;;;;19.50;84.63;100991.38;5003838;28;45436;-76
2021/06/28 01:05:15;;;;;;;;;7.25;7.25;;;;;19.47;84.98;100983.75;5004922;28;45491;-76
2021/06/28 01:07:42;;;;;;;;;11.75;8.25;;;;;19.46;84.67;100975.91;5005348;28;46329;-68
2021/06/28 01:10:09;;;;;;;;;7.75;7.25;;;;;19.43;84.72;100966.41;5001695;28;45592;-74
2021/06/28 01:12:35;;;;;;;;;7.00;6.75;;;;;19.44;84.75;100968.09;5016831;28;45610;-68
2021/06/28 01:15:01;;;;;;;;;7.25;6.00;;;;;19.43;84.75;100970.94;4996542;28;45498;-75
2021/06/28 01:17:27;;;;;;;;;7.00;5.75;;;;;19.40;85.06;100966.81;5007411;28;45569;-68
2021/06/28 01:20:03;;;;;;;;;6.00;5.00;;;;;19.36;84.65;100964.75;5009515;28;45498;-68
2021/06/28 01:22:33;;;;;;;;;7.00;6.25;;;;;19.32;84.69;100961.66;5005436;28;45616;-76
2021/06/28 01:24:59;;;;;;;;;4.00;3.50;;;;;19.26;84.10;100954.41;5007053;28;45812;-68
2021/06/28 01:27:27;;;;;;;;;5.25;5.00;;;;;19.22;84.36;100937.09;5007010;28;46962;-74
2021/06/28 01:29:53;;;;;;;;;5.75;5.00;;;;;19.13;85.89;100931.91;5002628;28;45555;-68
2021/06/28 01:32:20;;;;;;;;;5.50;4.50;;;;;19.07;85.11;100942.59;5008117;28;45902;-74
2021/06/28 01:34:45;;;;;;;;;7.00;5.00;;;;;19.00;86.15;100950.59;5008728;28;45989;-68
2021/06/28 01:37:20;;;;;;;;;5.00;3.50;;;;;18.95;84.69;100945.03;5006471;28;46652;-68
2021/06/28 01:39:48;;;;;;;;;4.50;4.00;;;;;18.93;84.80;100955.09;5006251;28;45988;-68
2021/06/28 01:42:14;;;;;;;;;6.00;5.25;;;;;18.97;84.83;100985.00;5007483;28;45534;-68
2021/06/28 01:44:39;;;;;;;;;5.50;3.50;;;;;18.97;85.18;100998.41;5006899;28;45501;-76
2021/06/28 01:47:04;;;;;;;;;5.25;5.25;;;;;19.00;85.13;101009.53;5009339;28;46066;-68
2021/06/28 01:49:30;;;;;;;;;6.75;4.75;;;;;19.02;85.86;101010.16;5006243;28;45559;-73
2021/06/28 01:51:56;;;;;;;;;4.25;4.25;;;;;19.06;85.38;101008.72;5007763;28;45846;-69
2021/06/28 01:54:21;;;;;;;;;4.75;4.75;;;;;19.06;85.11;101011.41;5005885;28;45851;-69
2021/06/28 01:56:46;;;;;;;;;3.25;3.00;;;;;19.06;84.91;101007.91;5003461;28;47019;-76
2021/06/28 01:59:12;;;;;;;;;2.75;2.75;;;;;19.04;85.18;100997.41;5008914;28;45505;-76
2021/06/28 02:01:38;;;;;;;;;3.50;3.50;;;;;19.03;84.07;100997.59;5006846;28;45388;-75
2021/06/28 02:04:04;;;;;;;;;2.25;1.75;;;;;18.99;83.99;100993.66;5005921;28;45540;-69
2021/06/28 02:06:30;;;;;;;;;3.50;2.75;;;;;18.92;84.52;100993.63;5006404;28;45675;-76
2021/06/28 02:08:55;;;;;;;;;2.50;2.50;;;;;18.84;84.22;100996.44;5005136;28;45630;-68
2021/06/28 02:11:21;;;;;;;;;3.00;2.75;;;;;18.80;85.74;101000.56;5007655;28;45556;-68
2021/06/28 02:13:46;;;;;;;;;3.50;2.75;;;;;18.79;85.27;101007.78;5008910;28;45653;-67
2021/06/28 02:16:11;;;;;;;;;2.25;2.25;;;;;18.79;85.02;101013.13;5007015;28;45599;-68
2021/06/28 02:18:37;;;;;;;;;3.00;3.00;;;;;18.79;84.76;101017.63;5006942;28;45537;-68
2021/06/28 02:21:03;;;;;;;;;3.75;2.00;;;;;18.78;85.39;101016.00;5006572;28;45539;-67
2021/06/28 02:23:34;;;;;;;;;2.75;2.75;;;;;18.79;85.09;101015.81;5007025;28;46083;-68
2021/06/28 02:26:03;;;;;;;;;2.50;2.00;;;;;18.76;85.00;101000.13;5003729;28;46030;-76
2021/06/28 02:28:32;;;;;;;;;3.00;3.00;;;;;18.73;85.12;100992.47;5005413;28;45510;-68
2021/06/28 02:30:58;;;;;;;;;5.75;2.50;;;;;18.73;85.37;100991.63;5006351;28;45559;-68
2021/06/28 02:33:24;;;;;;;;;2.00;2.00;;;;;18.71;85.76;100983.78;5006463;28;45385;-68
2021/06/28 02:35:51;;;;;;;;;2.75;2.75;;;;;18.68;84.86;100987.69;5006535;28;45714;-67
2021/06/28 02:38:16;;;;;;;;;5.00;4.50;;;;;18.65;85.39;100977.38;5007284;28;45963;-75
2021/06/28 02:40:42;;;;;;;;;5.00;4.00;;;;;18.61;85.58;100978.78;5007445;28;45491;-67
2021/06/28 02:43:09;;;;;;;;;2.75;2.75;;;;;18.56;86.13;100975.06;5005604;28;45491;-68
2021/06/28 02:45:34;;;;;;;;;2.75;2.25;;;;;18.51;85.60;100983.66;4999187;28;46481;-68
2021/06/28 02:48:00;;;;;;;;;5.25;3.00;;;;;18.45;85.36;100989.81;5005884;28;45642;-67
2021/06/28 02:50:25;;;;;;;;;3.00;2.00;;;;;18.43;85.33;101000.69;5004073;28;45495;-74
2021/06/28 02:52:51;;;;;;;;;3.00;3.00;;;;;18.42;86.00;101004.41;5005181;28;45994;-68
2021/06/28 02:55:17;;;;;;;;;2.00;2.00;;;;;18.47;86.23;101009.16;5002741;28;46571;-68
2021/06/28 02:57:42;;;;;;;;;4.00;1.25;;;;;18.49;86.41;101023.16;4994921;28;45554;-68
2021/06/28 03:00:12;;;;;;;;;2.00;2.00;;;;;18.51;85.98;101031.00;5003656;28;45481;-74
2021/06/28 03:02:37;;;;;;;;;2.75;2.75;;;;;18.48;85.22;101040.25;5004527;28;45514;-76
2021/06/28 03:05:07;;;;;;;;;2.25;1.50;;;;;18.49;85.82;101028.53;5007796;28;45591;-74
2021/06/28 03:07:33;;;;;;;;;2.00;2.00;;;;;18.47;85.46;101014.50;5004030;28;45754;-73
2021/06/28 03:09:58;;;;;;;;;1.75;1.75;;;;;18.45;85.46;101006.69;5003323;28;45873;-68
2021/06/28 03:12:24;;;;;;;;;2.00;2.00;;;;;18.45;85.19;101005.88;5005319;28;45510;-74
2021/06/28 03:14:50;;;;;;;;;2.00;2.00;;;;;18.43;85.43;101005.22;5002376;28;45926;-76
2021/06/28 03:17:16;;;;;;;;;2.50;2.50;;;;;18.44;85.83;101009.53;5001600;28;45639;-68
2021/06/28 03:19:41;;;;;;;;;3.00;2.00;;;;;18.40;84.62;101000.28;4999638;28;45683;-68
2021/06/28 03:22:06;;;;;;;;;2.00;2.00;;;;;18.37;84.93;100988.09;5002687;28;45576;-68
2021/06/28 03:24:32;;;;;;;;;3.50;3.00;;;;;18.36;85.33;100978.41;5002338;28;45513;-75
2021/06/28 03:26:58;;;;;;;;;2.00;2.00;;;;;18.34;84.55;100966.25;5002331;28;45736;-73
2021/06/28 03:29:23;;;;;;;;;4.25;2.25;;;;;18.33;85.53;100961.94;5002511;28;45949;-68
2021/06/28 03:31:48;;;;;;;;;2.00;2.00;;;;;18.33;85.94;100957.41;5005148;28;45615;-67
2021/06/28 03:34:14;;;;;;;;;3.00;1.25;;;;;18.34;85.72;100950.19;5003131;28;46233;-76
2021/06/28 03:36:41;;;;;;;;;2.00;2.00;;;;;18.33;85.90;100937.84;5002043;28;45611;-73
2021/06/28 03:39:08;;;;;;;;;2.50;2.50;;;;;18.34;86.01;100947.53;5002509;28;45558;-68
2021/06/28 03:41:33;;;;;;;;;2.00;2.00;;;;;18.35;86.35;100952.69;5005717;28;45621;-75
2021/06/28 03:43:58;;;;;;;;;5.00;3.00;;;;;18.36;85.95;100965.03;5004804;28;45493;-76
2021/06/28 03:46:24;;;;;;;;;2.25;1.50;;;;;18.39;86.15;100963.81;5002507;28;45496;-68
2021/06/28 03:48:49;;;;;;;;;3.00;3.00;;;;;18.39;85.60;100974.50;5001824;28;45977;-75
2021/06/28 03:51:15;;;;;;;;;2.50;1.00;;;;;18.37;85.09;100982.75;5003480;28;45415;-68
2021/06/28 03:53:40;;;;;;;;;4.25;2.50;;;;;18.35;84.58;100987.47;5007487;28;46349;-75
2021/06/28 03:56:08;;;;;;;;;2.00;2.00;;;;;18.32;84.78;100984.34;5006831;28;45903;-76
2021/06/28 03:58:38;;;;;;;;;3.00;3.00;;;;;18.27;84.98;100983.09;5005469;28;45548;-72
2021/06/28 04:01:05;;;;;;;;;2.00;2.00;;;;;18.27;84.72;100995.63;5003373;28;45468;-69
2021/06/28 04:03:33;;;;;;;;;2.00;1.50;;;;;18.25;85.71;100995.00;5003701;28;46101;-75
2021/06/28 04:06:04;;;;;;;;;1.50;1.50;;;;;18.25;84.62;100969.06;5002211;28;45733;-75
2021/06/28 04:08:29;;;;;;;;;3.00;2.00;;;;;18.26;85.13;100996.66;5004160;28;45748;-69
2021/06/28 04:10:55;;;;;;;;;0.50;0.50;;;;;18.25;85.87;101003.84;5006119;28;45489;-76
2021/06/28 04:13:21;;;;;;;;;2.75;2.50;;;;;18.23;85.31;101005.88;5005288;28;46367;-73
2021/06/28 04:15:46;;;;;;;;;1.50;1.50;;;;;18.18;84.90;100992.28;5006920;28;46146;-69
2021/06/28 04:18:13;;;;;;;;;3.25;3.00;;;;;18.14;84.99;101003.53;5002923;28;46040;-70
2021/06/28 04:20:39;;;;;;;;;4.00;2.50;;;;;18.15;85.71;101005.19;5004464;28;45433;-69
2021/06/28 04:23:05;;;;;;;;;4.00;2.25;;;;;18.15;85.37;100999.84;5003278;28;47735;-74
2021/06/28 04:25:30;;;;;;;;;2.00;2.00;;;;;18.14;85.70;101001.69;5004367;28;45858;-69
2021/06/28 04:27:56;;;;;;;;;3.75;2.50;;;;;18.16;85.52;101009.53;5009986;28;45537;-69
2021/06/28 04:30:22;;;;;;;;;2.25;2.25;;;;;18.15;85.53;100998.00;5001819;28;45535;-69
2021/06/28 04:32:49;;;;;;;;;2.00;1.75;;;;;18.16;84.75;101006.84;5002144;28;45695;-69
2021/06/28 04:35:18;;;;;;;;;3.00;3.00;;;;;18.15;85.15;100999.84;5006668;28;45456;-73
2021/06/28 04:37:45;;;;;;;;;3.50;1.50;;;;;18.12;85.65;100995.69;5005925;28;46412;-72
2021/06/28 04:40:12;;;;;;;;;2.25;2.25;;;;;18.14;86.09;100999.00;5004077;28;45510;-69
2021/06/28 04:42:39;;;;;;;;;4.75;2.50;;;;;18.10;84.83;101003.13;5005458;28;47073;-69
2021/06/28 04:45:05;;;;;;;;;3.25;3.00;;;;;18.11;85.12;101003.94;5004182;28;45493;-72
2021/06/28 04:47:31;;;;;;;;;2.00;2.00;;;;;18.08;84.75;100994.44;5002808;28;46022;-72
2021/06/28 04:50:01;;;;;;;;;2.25;2.00;;;;;18.07;85.08;100992.78;5004762;28;45561;-69
2021/06/28 04:52:27;;;;;;;;;3.75;3.00;;;;;18.06;85.85;101017.88;5005984;28;45844;-73
2021/06/28 04:54:52;;;;;;;;;3.25;2.00;;;;;18.05;85.30;101025.09;5005081;28;45535;-68
2021/06/28 04:57:18;;;;;;;;;2.00;2.00;;;;;18.07;86.02;101016.84;5005369;28;46117;-69
2021/06/28 04:59:43;;;;;;;;;3.50;3.50;;;;;18.08;85.64;101023.88;5006905;28;45450;-73
2021/06/28 05:02:08;;;;;;;;;3.75;2.75;;;;;18.09;85.85;101028.19;5008692;28;45437;-69
2021/06/28 05:04:34;;;;;;;;;4.50;2.00;;;;;18.03;84.98;101039.66;5008343;28;45687;-74
2021/06/28 05:06:59;;;;;;;;;2.75;2.75;;;;;18.03;85.89;101034.31;5006652;28;45680;-70
2021/06/28 05:09:24;;;;;;;;;7.00;5.00;;;;;18.05;85.66;101032.25;5007552;28;45559;-72
2021/06/28 05:11:50;;;;;;;;;3.00;3.00;;;;;18.08;86.02;101037.25;5007833;28;45553;-71
2021/06/28 05:14:15;;;;;;;;;3.00;3.00;;;;;18.11;85.84;101036.03;5012458;28;46351;-73
2021/06/28 05:16:40;;;;;;;;;3.25;3.00;;;;;18.11;85.41;101033.34;5006493;28;45979;-70
2021/06/28 05:19:06;;;;;;;;;3.25;3.25;;;;;18.12;85.36;101057.22;5006834;28;45491;-71
2021/06/28 05:21:31;;;;;;;;;4.25;3.00;;;;;18.13;85.74;101045.53;5009911;28;46095;-74
2021/06/28 05:23:56;;;;;;;;;5.25;5.25;;;;;18.16;85.74;101045.13;5009922;28;45485;-69
2021/06/28 05:26:22;;;;;;;;;3.75;3.75;;;;;18.20;85.81;101051.75;5009571;28;45608;-75
2021/06/28 05:28:47;;;;;;;;;3.00;3.00;;;;;18.20;84.40;101043.72;5007899;28;45703;-75
2021/06/28 05:31:13;;;;;;;;;6.00;5.00;;;;;18.17;84.83;101041.41;5006554;28;46276;-76
2021/06/28 05:33:38;;;;;;;;;6.50;4.00;;;;;18.15;84.95;101045.31;5008212;28;46073;-76
2021/06/28 05:36:04;;;;;;;;;5.00;4.50;;;;;18.12;84.62;101054.53;5015670;28;45879;-74
2021/06/28 05:38:29;;;;;;;;;3.00;3.00;;;;;18.10;84.93;101045.06;5007907;28;45883;-76
2021/06/28 05:40:55;;;;;;;;;3.00;3.00;;;;;18.10;85.06;101039.72;5008179;28;45737;-74
2021/06/28 05:43:20;;;;;;;;;5.75;4.00;;;;;18.12;85.28;101043.03;5007293;28;45819;-68
2021/06/28 05:45:53;;;;;;;;;3.25;3.25;;;;;18.16;85.01;101033.59;5008964;28;45459;-69
2021/06/28 05:48:18;;;;;;;;;3.25;3.25;;;;;18.13;84.32;101016.09;5016751;28;45691;-68
2021/06/28 05:50:44;;;;;;;;;5.00;5.00;;;;;18.16;84.94;100996.16;5014160;28;46393;-76
2021/06/28 05:53:09;;;;;;;;;5.75;4.75;;;;;18.18;85.93;100996.81;5015848;28;45546;-76
2021/06/28 05:55:35;;;;;;;;;4.00;3.25;;;;;18.22;84.83;101003.41;5010320;28;45470;-74
2021/06/28 05:58:00;;;;;;;;;4.25;3.25;;;;;18.22;84.39;100998.91;5007920;28;45753;-75
2021/06/28 06:00:26;;;;;;;;;2.50;2.00;;;;;18.23;85.62;100997.88;5008189;28;45547;-69
2021/06/28 06:02:51;;;;;;;;;4.75;3.75;;;;;18.26;85.48;101002.00;5015193;28;45583;-76
2021/06/28 06:05:16;;;;;;;;;5.00;3.25;;;;;18.28;85.55;100989.25;5017084;28;45684;-70
2021/06/28 06:07:42;;;;;;;;;5.25;2.50;;;;;18.32;85.56;101005.75;5007148;28;45523;-77
2021/06/28 06:10:11;;;;;;;;;4.00;4.00;;;;;18.34;85.50;101009.06;5008037;28;45720;-69
2021/06/28 06:12:37;;;;;;;;;4.00;4.00;;;;;18.36;84.35;101017.72;5004498;28;45573;-70
2021/06/28 06:15:08;;;;;;;;;5.25;3.75;;;;;18.38;84.76;101021.03;4996518;28;46080;-68
2021/06/28 06:17:33;;;;;;;;;4.00;3.50;;;;;18.36;85.09;101023.91;5006051;28;45647;-69
2021/06/28 06:19:59;;;;;;;;;3.00;3.00;;;;;18.39;84.64;101026.19;5008305;28;46463;-75
2021/06/28 06:22:25;;;;;;;;;3.50;3.50;;;;;18.42;85.69;101027.63;5025600;28;45738;-75
2021/06/28 06:24:50;;;;;;;;;4.00;4.00;;;;;18.47;85.04;101030.56;5004047;28;46009;-69
2021/06/28 06:27:16;;;;;;;;;3.75;3.75;;;;;18.50;84.93;101056.97;5003487;28;45600;-78
2021/06/28 06:29:41;;;;;;;;;5.75;4.75;;;;;18.51;85.00;101066.63;5003598;28;47637;-74
2021/06/28 06:32:07;;;;;;;;;6.75;4.50;;;;;18.55;85.29;101067.91;5004863;28;45742;-68
2021/06/28 06:34:33;;;;;;;;;6.50;4.50;;;;;18.61;84.88;101072.47;5001258;28;45518;-68
2021/06/28 06:36:58;;;;;;;;;5.50;5.25;;;;;18.64;84.82;101069.44;5003255;28;45539;-70
2021/06/28 06:39:23;;;;;;;;;3.75;3.75;;;;;18.67;84.66;101070.88;5002769;28;46006;-75
2021/06/28 06:41:49;;;;;;;;;4.50;4.25;;;;;18.71;85.17;101085.53;5001031;28;46039;-75
2021/06/28 06:44:14;;;;;;;;;7.00;5.00;;;;;18.73;84.69;101082.66;5007071;28;45530;-68
2021/06/28 06:46:40;;;;;;;;;6.00;5.25;;;;;18.78;83.08;101083.75;5004791;28;45688;-75
2021/06/28 06:49:06;;;;;;;;;4.75;4.25;;;;;18.76;82.89;101082.28;5003715;28;45462;-70
2021/06/28 06:51:33;;;;;;;;;4.75;4.00;;;;;18.72;83.36;101089.88;5003522;28;45728;-73
2021/06/28 06:53:58;;;;;;;;;5.50;3.75;;;;;18.69;81.96;101079.53;5003966;28;45651;-73
2021/06/28 06:56:23;;;;;;;;;6.00;5.00;;;;;18.65;82.63;101076.41;5003925;28;45631;-75
2021/06/28 06:58:49;;;;;;;;;6.00;4.25;;;;;18.65;82.44;101065.72;5006403;28;45560;-68
2021/06/28 07:01:16;;;;;;;;;3.25;3.25;;;;;18.68;81.96;101075.22;5009625;28;45843;-75
2021/06/28 07:03:45;;;;;;;;;2.25;2.25;;;;;18.71;82.05;101069.47;5005831;28;45796;-74
2021/06/28 07:06:10;;;;;;;;;5.75;3.50;;;;;18.76;81.30;101066.22;5009042;28;45598;-70
2021/06/28 07:08:37;;;;;;;;;5.25;4.50;;;;;18.81;81.98;101069.16;5003088;28;46470;-75
2021/06/28 07:11:06;;;;;;;;;4.25;4.25;;;;;18.92;81.72;101076.66;5008475;28;45453;-74
2021/06/28 07:13:32;;;;;;;;;6.75;4.75;;;;;19.07;80.95;101082.72;5004675;28;45505;-76
2021/06/28 07:15:58;;;;;;;;;7.00;4.75;;;;;19.20;80.37;101081.16;5005374;28;45985;-78
2021/06/28 07:18:23;;;;;;;;;6.25;4.00;;;;;19.34;80.36;101083.69;5005486;28;46096;-75
2021/06/28 07:20:48;;;;;;;;;5.50;4.00;;;;;19.49;80.31;101083.56;5005370;28;45536;-69
2021/06/28 07:23:14;;;;;;;;;4.75;4.75;;;;;19.60;79.21;101079.47;5008360;28;45554;-69
2021/06/28 07:25:40;;;;;;;;;7.75;5.00;;;;;19.62;79.00;101081.97;5006906;28;45820;-75
2021/06/28 07:28:05;;;;;;;;;5.00;5.00;;;;;19.71;78.24;101080.78;5004067;28;45756;-75
2021/06/28 07:30:30;;;;;;;;;5.00;5.00;;;;;19.90;80.61;101085.38;5005266;28;45625;-73
2021/06/28 07:32:56;;;;;;;;;9.00;5.00;;;;;20.17;79.52;101091.63;5007828;28;45599;-69
2021/06/28 07:35:23;;;;;;;;;6.00;6.00;;;;;20.45;74.55;101097.84;5005677;28;45734;-75
2021/06/28 07:37:48;;;;;;;;;5.50;5.50;;;;;20.59;76.92;101083.44;5006814;28;45676;-71
2021/06/28 07:40:17;;;;;;;;;7.50;6.50;;;;;20.89;78.07;101091.03;5004693;28;45540;-70
2021/06/28 07:42:43;;;;;;;;;9.00;6.00;;;;;21.08;74.79;101092.88;5007661;28;45972;-72
2021/06/28 07:45:10;;;;;;;;;5.75;5.75;;;;;21.29;77.11;101093.63;5003401;28;45585;-69
2021/06/28 07:47:36;;;;;;;;;6.75;5.75;;;;;21.54;73.04;101091.94;5004448;28;46655;-71
2021/06/28 07:50:03;;;;;;;;;5.25;5.00;;;;;21.75;71.31;101092.69;5007023;28;45553;-75
2021/06/28 07:52:29;;;;;;;;;6.50;5.50;;;;;21.87;70.92;101104.41;5006444;28;45717;-77
2021/06/28 07:54:56;;;;;;;;;5.25;4.25;;;;;21.98;69.22;101092.94;5006828;28;45627;-76
2021/06/28 07:57:21;;;;;;;;;4.00;4.00;;;;;22.14;70.61;101097.00;5009726;28;46562;-70
2021/06/28 07:59:47;;;;;;;;;3.00;3.00;;;;;22.58;71.08;101091.75;5011067;28;45505;-74
2021/06/28 08:02:12;;;;;;;;;5.25;4.00;;;;;24.57;67.44;101086.63;5009527;28;45811;-75
2021/06/28 08:04:38;;;;;;;;;4.25;4.25;;;;;28.02;63.48;101087.66;5013082;28;45768;-76
2021/06/28 08:07:03;;;;;;;;;4.00;4.00;;;;;31.26;56.71;101084.81;5004415;28;45899;-70
2021/06/28 08:09:29;;;;;;;;;5.00;3.50;;;;;33.64;49.76;101086.03;5008050;28;45563;-70
2021/06/28 08:11:58;;;;;;;;;3.00;3.00;;;;;35.21;44.33;101089.91;5005743;28;45727;-69
2021/06/28 08:14:25;;;;;;;;;2.00;2.00;;;;;36.41;43.70;101101.47;5008614;28;45578;-71
2021/06/28 08:16:50;;;;;;;;;4.00;4.00;;;;;37.55;44.54;101109.03;5006143;28;45457;-73
2021/06/28 08:19:16;;;;;;;;;3.00;3.00;;;;;38.74;40.59;101104.03;5004402;28;45999;-78
2021/06/28 08:21:41;;;;;;;;;3.50;2.25;;;;;39.65;38.46;101104.50;5004454;28;45576;-75
2021/06/28 08:24:09;;;;;;;;;2.75;2.75;;;;;39.77;38.04;101099.03;5005767;28;45596;-72
2021/06/28 08:26:37;;;;;;;;;2.75;2.75;;;;;38.19;31.98;101089.06;5014471;28;46697;-69
2021/06/28 08:29:05;;;;;;;;;3.00;2.50;;;;;38.52;36.47;101096.00;5009448;28;45466;-73
2021/06/28 08:31:31;;;;;;;;;4.50;2.50;;;;;39.53;35.36;101091.41;5006436;28;45495;-73
2021/06/28 08:33:57;;;;;;;;;0.75;0.25;;;;;40.86;35.23;101095.31;5004225;28;45470;-76
2021/06/28 08:36:22;;;;;;;;;1.25;1.25;;;;;42.08;27.89;101099.78;5007388;28;46260;-77
2021/06/28 08:38:47;;;;;;;;;1.75;1.75;;;;;42.68;32.03;101092.25;5006301;28;45619;-74
2021/06/28 08:41:17;;;;;;;;;0.50;0.00;;;;;43.32;31.08;101095.72;5005966;28;45643;-77
2021/06/28 08:43:47;;;;;;;;;0.00;0.00;;;;;43.90;28.70;101103.28;5003341;28;45363;-71
2021/06/28 08:46:13;;;;;;;;;1.00;1.00;;;;;44.05;29.19;101095.25;5003875;28;46375;-71
2021/06/28 08:48:45;;;;;;;;;1.00;1.00;;;;;43.58;27.52;101097.06;5003167;28;45488;-75
2021/06/28 08:51:12;;;;;;;;;1.00;0.75;;;;;43.88;28.56;101099.28;4998247;28;45591;-76
2021/06/28 08:53:38;;;;;;;;;1.25;1.00;;;;;44.68;28.06;101088.38;5000047;28;45513;-71
2021/06/28 08:56:07;;;;;;;;;3.00;0.25;;;;;45.08;25.67;101098.94;4994925;28;45513;-75
2021/06/28 08:58:42;;;;;;;;;1.00;1.00;;;;;45.41;24.59;101095.44;5002446;28;46036;-76
2021/06/28 09:01:08;;;;;;;;;0.00;0.00;;;;;45.13;25.55;101089.44;4999427;28;45786;-70
2021/06/28 09:03:34;;;;;;;;;0.25;0.25;;;;;43.51;26.09;101088.56;5003599;28;45576;-77
2021/06/28 09:06:14;;;;;;;;;1.00;0.00;;;;;40.88;28.17;101096.59;4994688;28;47585;-70
2021/06/28 09:08:58;;;;;;;;;0.00;0.00;;;;;40.87;28.75;101091.38;4999748;28;45518;-70
2021/06/28 09:11:25;;;;;;;;;2.50;0.00;;;;;38.98;30.02;101095.19;4999939;28;45538;-70
2021/06/28 09:13:53;;;;;;;;;1.00;1.00;;;;;37.42;32.12;101098.97;5005071;28;45556;-77
2021/06/28 09:16:27;;;;;;;;;0.00;0.00;;;;;38.36;31.16;101091.00;4998580;28;45770;-76
2021/06/28 09:18:58;;;;;;;;;0.25;0.25;;;;;39.19;31.87;101091.63;5002183;28;45699;-70
2021/06/28 09:21:40;;;;;;;;;1.00;0.00;;;;;40.32;29.15;101099.84;5003132;28;45626;-70
2021/06/28 09:24:25;;;;;;;;;1.25;0.00;;;;;40.61;24.22;101100.81;5004637;28;45914;-70
2021/06/28 09:26:50;;;;;;;;;0.50;0.50;;;;;39.54;27.76;101104.09;5000636;28;45542;-77
2021/06/28 09:29:16;;;;;;;;;0.25;0.25;;;;;38.39;27.90;101109.66;5002913;28;45531;-75
2021/06/28 09:31:44;;;;;;;;;0.00;0.00;;;;;37.96;30.11;101110.50;5001388;28;45615;-76
2021/06/28 09:34:21;;;;;;;;;0.00;0.00;;;;;37.25;32.60;101119.03;5006447;28;45508;-69
2021/06/28 09:36:57;;;;;;;;;0.25;0.00;;;;;36.05;31.42;101109.75;5004401;28;47452;-77
2021/06/28 09:39:38;;;;;;;;;1.00;0.00;;;;;34.89;32.84;101113.59;5002100;28;45569;-71
2021/06/28 09:42:06;;;;;;;;;0.25;0.25;;;;;34.35;34.01;101112.38;4999338;28;45588;-77
2021/06/28 09:44:33;;;;;;;;;1.00;1.00;;;;;34.15;35.03;101113.53;5000862;28;45602;-72
2021/06/28 09:47:12;;;;;;;;;0.00;0.00;;;;;33.98;35.61;101114.03;5008474;28;45508;-71
2021/06/28 09:49:40;;;;;;;;;1.00;1.00;;;;;34.39;34.02;101115.31;5002293;28;45579;-71
2021/06/28 09:52:07;;;;;;;;;0.75;0.75;;;;;34.84;36.30;101119.19;5002650;28;45515;-75
2021/06/28 09:54:36;;;;;;;;;0.25;0.25;;;;;34.88;34.78;101116.63;5004924;28;45566;-75
2021/06/28 09:57:05;;;;;;;;;0.50;0.50;;;;;34.11;34.24;101111.66;5005625;28;45658;-71
2021/06/28 09:59:40;;;;;;;;;1.25;0.00;;;;;33.16;35.44;101117.84;5005490;28;45596;-71
2021/06/28 10:02:26;;;;;;;;;0.00;0.00;;;;;32.78;31.94;101125.88;5008274;28;45647;-69
2021/06/28 10:05:35;;;;;;;;;0.75;0.00;;;;;32.29;34.47;101129.56;5000877;28;45507;-71
2021/06/28 10:07:50;;;;;;;;;0.25;0.00;;;;;31.42;35.05;101129.28;5000292;28;47316;-76
2021/06/28 10:10:25;;;;;;;;;0.50;0.50;;;;;30.92;37.20;101126.41;5001082;28;45548;-70
2021/06/28 10:12:53;;;;;;;;;1.00;1.00;;;;;30.32;35.57;101122.63;5002871;28;45545;-70
2021/06/28 10:15:22;;;;;;;;;0.75;0.00;;;;;29.66;37.92;101131.47;5002696;28;45521;-69
2021/06/28 10:17:49;;;;;;;;;2.00;1.00;;;;;29.03;39.28;101131.38;4999198;28;45474;-77
2021/06/28 10:20:20;;;;;;;;;1.25;1.25;;;;;28.56;40.46;101137.56;5007103;28;45576;-77
2021/06/28 10:22:48;;;;;;;;;2.00;0.50;;;;;28.31;41.88;101136.25;5005760;28;45700;-67
2021/06/28 10:25:15;;;;;;;;;2.75;1.50;;;;;28.14;41.43;101135.53;5001708;28;46074;-70
2021/06/28 10:27:40;;;;;;;;;0.50;0.50;;;;;27.84;41.33;101137.72;5006379;28;45522;-68
2021/06/28 10:30:09;;;;;;;;;3.00;2.00;;;;;27.44;42.41;101135.28;5004171;28;45572;-69
2021/06/28 10:32:36;;;;;;;;;1.75;0.50;;;;;27.67;43.67;101129.63;5007009;28;46509;-69
2021/06/28 10:35:04;;;;;;;;;1.25;1.00;;;;;28.32;41.24;101134.38;5005046;28;45535;-68
2021/06/28 10:37:38;;;;;;;;;1.00;1.00;;;;;28.13;40.32;101136.63;5005394;28;47289;-67
2021/06/28 10:40:16;;;;;;;;;2.00;2.00;;;;;27.61;41.89;101129.78;4998490;28;45877;-73
2021/06/28 10:42:44;;;;;;;;;1.25;1.25;;;;;27.14;42.49;101120.22;5002991;28;45696;-70
2021/06/28 10:45:13;;;;;;;;;3.00;2.25;;;;;26.67;43.36;101123.31;5006570;28;45769;-69
2021/06/28 10:47:41;;;;;;;;;2.25;2.00;;;;;26.21;45.24;101114.44;5004809;28;46270;-70
2021/06/28 10:50:08;;;;;;;;;2.75;1.25;;;;;25.99;45.09;101114.31;5003890;28;45691;-71
2021/06/28 10:52:34;;;;;;;;;1.00;1.00;;;;;25.75;45.85;101116.25;5003753;28;45758;-68
2021/06/28 10:55:20;;;;;;;;;2.25;1.00;;;;;25.52;47.20;101109.84;4999642;28;45553;-70
2021/06/28 10:57:54;;;;;;;;;1.00;1.00;;;;;25.30;47.60;101120.47;4996705;28;45782;-69
2021/06/28 11:00:52;;;;;;;;;1.00;1.00;;;;;25.00;47.71;101117.91;5015260;28;45547;-73
2021/06/28 11:03:23;;;;;;;;;2.50;1.00;;;;;24.74;48.03;101119.19;5007093;28;45721;-68
2021/06/28 11:06:25;;;;;;;;;1.00;1.00;;;;;24.52;48.54;101113.50;5013554;28;46697;-70
2021/06/28 11:09:10;;;;;;;;;1.00;1.00;;;;;24.48;50.32;101112.34;5001352;28;46465;-72
2021/06/28 11:11:45;;;;;;;;;1.00;1.00;;;;;24.62;50.29;101113.75;5002519;28;45598;-70
2021/06/28 11:14:30;;;;;;;;;1.00;1.00;;;;;24.84;50.71;101110.50;5003947;28;45613;-75
2021/06/28 11:17:07;;;;;;;;;1.00;1.00;;;;;25.70;51.13;101108.03;5006110;28;45815;-68
2021/06/28 11:19:46;;;;;;;;;1.00;1.00;;;;;26.70;50.02;101101.13;5002771;28;46481;-70
2021/06/28 11:22:35;;;;;;;;;1.25;1.25;;;;;27.23;46.70;101105.19;5001385;28;45598;-69
2021/06/28 11:25:01;;;;;;;;;1.25;1.25;;;;;27.31;46.07;101100.41;5005336;28;45572;-74
2021/06/28 11:27:26;;;;;;;;;0.25;0.25;;;;;27.30;44.84;101096.88;4998213;28;45694;-70